Time;durP1;ratioP1;P1;durP2;ratioP2;P2;SDS_P1;SDS_P2;PMS_P1;PMS_P2;Temp;Humidity;BMP_temperature;BMP_pressure;BME280_temperature;BME280_humidity;BME280_pressure;Samples;Min_cycle;Max_cycle;Signal;HPM_P1;HPM_P2
2023/01/17 00:01:43;;;;;;;;;13.00;8.33;;;;;8.79;100.00;98694.41;5086667;27;45259;-76
2023/01/17 00:09:52;;;;;;;;;10.00;10.00;;;;;8.77;100.00;98683.75;5096619;27;45250;-76
2023/01/17 00:12:19;;;;;;;;;9.67;7.00;;;;;8.74;100.00;98680.59;5099702;27;45417;-76
2023/01/17 00:14:44;;;;;;;;;3.00;3.00;;;;;8.74;100.00;98675.19;5096641;27;45349;-76
2023/01/17 00:17:09;;;;;;;;;8.33;6.00;;;;;8.65;100.00;98676.28;5084649;27;45554;-75
2023/01/17 01:34:05;;;;;;;;;7.00;6.00;;;;;8.66;100.00;98646.34;5095701;27;45663;-76
2023/01/17 01:36:31;;;;;;;;;4.33;4.33;;;;;8.61;100.00;98634.41;5073711;27;45308;-76
2023/01/17 01:38:56;;;;;;;;;12.00;6.00;;;;;8.64;100.00;98636.72;5082601;27;45273;-75
2023/01/17 01:41:21;;;;;;;;;10.67;7.00;;;;;8.73;100.00;98636.44;5089119;27;45430;-76
2023/01/17 01:43:50;;;;;;;;;8.33;7.00;;;;;8.75;100.00;98636.25;5093390;27;45694;-76
2023/01/17 01:46:18;;;;;;;;;6.33;4.33;;;;;8.71;100.00;98632.22;5099382;27;45292;-76
2023/01/17 01:48:54;;;;;;;;;8.33;4.33;;;;;8.67;100.00;98631.78;5098970;27;45448;-75
2023/01/17 01:51:51;;;;;;;;;10.67;9.00;;;;;8.61;100.00;98626.28;5075024;27;47517;-75
2023/01/17 01:54:24;;;;;;;;;7.00;7.00;;;;;8.59;100.00;98632.72;5088405;27;45417;-76
2023/01/17 01:56:52;;;;;;;;;10.67;9.67;;;;;8.52;100.00;98618.25;5081180;27;45332;-76
2023/01/17 01:59:20;;;;;;;;;9.33;8.33;;;;;8.50;100.00;98620.28;5095899;27;45440;-76
2023/01/17 02:01:46;;;;;;;;;6.33;6.33;;;;;8.54;100.00;98618.91;5097655;27;45649;-76
2023/01/17 02:04:13;;;;;;;;;8.33;6.33;;;;;8.55;100.00;98609.72;5096882;27;45401;-75
2023/01/17 02:06:44;;;;;;;;;9.00;9.00;;;;;8.54;100.00;98612.66;5083730;27;45444;-75
2023/01/17 02:09:12;;;;;;;;;6.00;5.00;;;;;8.54;100.00;98601.81;5098036;27;45247;-76
2023/01/17 02:11:39;;;;;;;;;6.00;6.00;;;;;8.56;100.00;98599.75;5091169;27;45346;-76
2023/01/17 02:14:05;;;;;;;;;5.33;5.33;;;;;8.49;100.00;98588.84;5074363;28;45369;-76
2023/01/17 02:17:00;;;;;;;;;8.33;6.00;;;;;8.53;100.00;98595.56;5081369;27;45523;-76
2023/01/17 02:19:47;;;;;;;;;5.33;5.33;;;;;8.46;100.00;98586.53;5085820;27;45432;-75
2023/01/17 02:22:34;;;;;;;;;10.33;7.33;;;;;8.40;100.00;98584.53;5088288;27;46316;-76
2023/01/17 02:25:25;;;;;;;;;6.00;6.00;;;;;8.49;100.00;98585.28;5078236;27;45334;-76
2023/01/17 02:28:08;;;;;;;;;6.67;6.67;;;;;8.50;100.00;98587.81;5090735;27;45504;-76
2023/01/17 02:30:38;;;;;;;;;10.00;7.67;;;;;8.32;100.00;98573.84;5093245;27;45275;-76
2023/01/17 02:33:32;;;;;;;;;7.67;7.67;;;;;8.22;100.00;98567.84;5089828;27;45393;-76
2023/01/17 02:36:04;;;;;;;;;14.33;10.00;;;;;8.13;100.00;98564.38;5080529;27;45271;-76
2023/01/17 02:38:38;;;;;;;;;11.33;9.67;;;;;8.14;100.00;98555.22;5089711;27;45428;-76
2023/01/17 02:41:08;;;;;;;;;9.00;6.00;;;;;8.18;100.00;98553.00;5088060;27;45408;-76
2023/01/17 02:43:36;;;;;;;;;13.33;10.00;;;;;8.17;100.00;98540.50;5090728;27;46608;-76
2023/01/17 02:46:01;;;;;;;;;14.00;10.00;;;;;8.15;100.00;98545.25;5086715;27;45409;-76
2023/01/17 02:48:31;;;;;;;;;17.67;13.33;;;;;8.09;100.00;98530.63;5078154;28;45461;-76
2023/01/17 02:51:05;;;;;;;;;17.00;12.33;;;;;8.11;100.00;98539.38;5092481;27;45666;-75
2023/01/17 02:54:05;;;;;;;;;13.67;10.67;;;;;8.17;100.00;98524.28;5081434;27;46146;-76
2023/01/17 02:57:08;;;;;;;;;15.33;13.00;;;;;8.14;100.00;98521.94;5086849;27;45319;-76
2023/01/17 02:59:46;;;;;;;;;14.00;13.00;;;;;8.06;100.00;98516.63;5084485;27;45694;-75
2023/01/17 03:02:32;;;;;;;;;18.00;14.33;;;;;7.96;100.00;98510.69;5087633;27;45794;-76
2023/01/17 03:05:07;;;;;;;;;15.00;15.00;;;;;7.92;100.00;98501.25;5090882;27;45380;-76
2023/01/17 03:07:33;;;;;;;;;14.00;14.00;;;;;7.88;100.00;98494.53;5091291;27;45376;-76
2023/01/17 03:10:02;;;;;;;;;20.75;15.50;;;;;7.85;100.00;98486.78;5098112;27;45530;-76
2023/01/17 03:12:29;;;;;;;;;20.00;20.00;;;;;7.82;100.00;98488.00;5071716;27;45634;-75
2023/01/17 03:14:55;;;;;;;;;21.00;16.75;;;;;7.84;100.00;98477.84;5096282;27;46299;-76
2023/01/17 03:17:23;;;;;;;;;16.67;16.67;;;;;7.84;100.00;98483.25;5089708;27;45622;-76
2023/01/17 03:19:49;;;;;;;;;17.00;16.00;;;;;7.90;100.00;98476.25;5095310;27;45487;-75
2023/01/17 03:22:14;;;;;;;;;20.75;14.75;;;;;7.95;100.00;98465.72;5070106;27;45359;-76
2023/01/17 03:24:40;;;;;;;;;23.00;15.67;;;;;7.97;100.00;98460.94;5088597;27;45704;-76
2023/01/17 03:27:05;;;;;;;;;15.33;14.00;;;;;7.92;100.00;98452.56;5087731;27;45437;-76
2023/01/17 03:29:30;;;;;;;;;21.00;18.00;;;;;7.90;100.00;98465.44;5095894;27;45843;-76
2023/01/17 03:31:56;;;;;;;;;22.50;18.75;;;;;7.89;100.00;98466.47;5088113;27;45321;-75
2023/01/17 03:34:21;;;;;;;;;19.00;18.00;;;;;7.89;100.00;98459.19;5093220;27;46407;-76
2023/01/17 03:36:47;;;;;;;;;31.25;24.50;;;;;7.89;100.00;98463.78;5090062;27;45418;-76
2023/01/17 03:39:12;;;;;;;;;24.00;20.25;;;;;7.89;100.00;98464.59;5090811;27;45318;-76
2023/01/17 03:41:37;;;;;;;;;24.00;19.75;;;;;7.95;100.00;98452.22;5067975;27;45183;-76
2023/01/17 03:44:03;;;;;;;;;24.75;23.00;;;;;7.90;100.00;98443.81;5095915;27;46566;-76
2023/01/17 03:46:28;;;;;;;;;22.50;22.25;;;;;7.87;100.00;98445.03;5085366;27;45327;-75
2023/01/17 03:48:54;;;;;;;;;24.50;24.50;;;;;7.87;100.00;98444.19;5097105;27;45355;-75
2023/01/17 03:51:19;;;;;;;;;23.00;22.25;;;;;7.89;100.00;98445.66;5074338;27;45266;-76
2023/01/17 03:53:45;;;;;;;;;20.75;16.75;;;;;7.85;100.00;98440.84;5078380;27;46816;-76
2023/01/17 03:56:11;;;;;;;;;20.50;19.50;;;;;7.89;100.00;98439.44;5083826;27;45357;-76
2023/01/17 03:58:37;;;;;;;;;32.25;24.25;;;;;7.97;100.00;98444.72;5096002;27;45487;-76
2023/01/17 04:01:02;;;;;;;;;25.50;22.00;;;;;8.02;100.00;98445.03;5084510;27;45384;-75
2023/01/17 04:03:28;;;;;;;;;25.75;24.00;;;;;7.96;100.00;98433.09;5099910;27;45559;-75
2023/01/17 04:05:53;;;;;;;;;33.25;25.75;;;;;7.98;100.00;98441.00;5081929;27;45428;-76
2023/01/17 04:08:18;;;;;;;;;30.00;25.00;;;;;8.05;100.00;98431.09;5090524;27;45370;-75
2023/01/17 04:10:44;;;;;;;;;21.00;17.50;;;;;8.06;100.00;98433.63;5095183;27;45421;-75
2023/01/17 04:13:09;;;;;;;;;25.00;19.75;;;;;8.05;100.00;98431.09;5092085;27;45459;-77
2023/01/17 04:15:34;;;;;;;;;21.00;19.75;;;;;8.09;100.00;98421.59;5094074;27;45525;-75
2023/01/17 04:18:00;;;;;;;;;22.75;20.75;;;;;8.12;100.00;98432.03;5089812;27;45789;-75
2023/01/17 04:20:32;;;;;;;;;26.00;25.50;;;;;8.09;100.00;98427.84;5097085;27;45521;-75
2023/01/17 04:22:58;;;;;;;;;27.00;21.50;;;;;8.14;100.00;98430.81;5078475;27;48298;-75
2023/01/17 04:25:24;;;;;;;;;23.75;23.25;;;;;8.14;100.00;98424.56;5091196;27;45418;-75
2023/01/17 04:27:52;;;;;;;;;29.00;21.50;;;;;8.15;100.00;98416.28;5070942;27;45346;-76
2023/01/17 04:30:18;;;;;;;;;21.50;19.75;;;;;8.10;100.00;98405.19;5091311;27;45567;-75
2023/01/17 04:32:43;;;;;;;;;23.75;20.25;;;;;8.09;100.00;98413.50;5088757;27;45406;-75
2023/01/17 04:35:09;;;;;;;;;28.75;25.75;;;;;8.01;100.00;98411.72;5089505;27;45234;-75
2023/01/17 04:37:35;;;;;;;;;25.50;21.25;;;;;8.07;100.00;98418.25;5091488;27;45460;-75
2023/01/17 04:40:00;;;;;;;;;24.75;23.00;;;;;8.03;100.00;98411.56;5088530;27;45187;-75
2023/01/17 04:42:27;;;;;;;;;23.75;21.75;;;;;8.04;100.00;98413.19;5076242;27;46035;-75
2023/01/17 04:44:53;;;;;;;;;20.50;19.75;;;;;7.91;100.00;98403.06;5069433;28;45337;-76
2023/01/17 04:47:18;;;;;;;;;28.25;24.75;;;;;7.87;100.00;98414.47;5072339;27;45303;-76
2023/01/17 04:49:43;;;;;;;;;24.00;20.00;;;;;7.78;100.00;98395.63;5080640;27;45446;-76
2023/01/17 04:52:08;;;;;;;;;23.25;22.25;;;;;7.93;100.00;98397.47;5096886;27;46715;-76
2023/01/17 04:54:34;;;;;;;;;28.50;24.00;;;;;7.93;100.00;98392.06;5098754;27;45474;-76
2023/01/17 04:56:59;;;;;;;;;24.00;23.75;;;;;7.95;100.00;98395.44;5094448;27;45460;-76
2023/01/17 04:59:24;;;;;;;;;19.75;17.00;;;;;7.99;100.00;98386.75;5075643;27;45329;-76
2023/01/17 05:01:50;;;;;;;;;25.50;19.00;;;;;8.07;100.00;98385.78;5071434;27;46907;-76
2023/01/17 05:04:15;;;;;;;;;21.75;20.50;;;;;8.11;100.00;98387.06;5099879;27;45447;-76
2023/01/17 05:06:40;;;;;;;;;29.50;21.00;;;;;8.10;100.00;98369.19;5074514;27;45593;-76
2023/01/17 05:09:06;;;;;;;;;20.50;17.50;;;;;8.24;100.00;98379.13;5098134;27;45420;-76
2023/01/17 05:11:32;;;;;;;;;24.00;23.25;;;;;8.25;100.00;98378.13;5102472;27;45474;-75
2023/01/17 05:13:57;;;;;;;;;18.25;16.50;;;;;8.25;100.00;98372.69;5076715;28;45263;-75
2023/01/17 05:16:23;;;;;;;;;20.00;19.50;;;;;8.20;100.00;98358.91;5099388;27;45227;-75
2023/01/17 05:18:52;;;;;;;;;19.00;18.00;;;;;8.38;100.00;98361.22;5082989;27;45527;-78
2023/01/17 05:21:18;;;;;;;;;21.75;19.75;;;;;8.43;100.00;98358.75;5102899;27;45620;-76
2023/01/17 05:23:43;;;;;;;;;21.00;17.75;;;;;8.12;100.00;98349.03;5098396;27;45464;-76
2023/01/17 05:26:09;;;;;;;;;19.50;17.75;;;;;8.13;100.00;98341.75;5095652;27;45372;-75
2023/01/17 05:28:34;;;;;;;;;21.25;19.25;;;;;8.08;100.00;98344.22;5096082;27;45282;-77
2023/01/17 05:30:59;;;;;;;;;16.50;15.25;;;;;8.07;100.00;98337.13;5076289;27;45521;-76
2023/01/17 05:33:25;;;;;;;;;20.50;17.25;;;;;8.06;100.00;98344.38;5093672;27;45502;-76
2023/01/17 05:35:51;;;;;;;;;22.50;21.25;;;;;8.04;100.00;98348.31;5101176;27;45571;-74
2023/01/17 05:38:17;;;;;;;;;17.00;16.75;;;;;7.96;100.00;98343.03;5074628;27;45500;-74
2023/01/17 05:40:42;;;;;;;;;19.25;17.75;;;;;7.92;100.00;98341.72;5095100;27;45321;-75
2023/01/17 05:43:08;;;;;;;;;21.25;18.00;;;;;7.86;100.00;98346.03;5097757;27;45290;-75
2023/01/17 05:45:33;;;;;;;;;43.25;36.00;;;;;7.95;100.00;98344.91;5076411;27;45669;-74
2023/01/17 05:47:59;;;;;;;;;26.25;23.00;;;;;7.92;100.00;98334.44;5074125;27;45402;-75
2023/01/17 05:50:28;;;;;;;;;23.75;18.00;;;;;7.94;100.00;98340.50;5077414;27;47039;-76
2023/01/17 05:53:00;;;;;;;;;21.25;18.00;;;;;7.93;100.00;98327.19;5099092;27;45440;-75
2023/01/17 05:55:27;;;;;;;;;28.75;24.50;;;;;7.93;100.00;98325.31;5094180;27;45416;-75
2023/01/17 05:57:52;;;;;;;;;24.25;22.00;;;;;7.82;100.00;98318.53;5091789;27;45523;-75
2023/01/17 06:00:18;;;;;;;;;23.75;21.00;;;;;7.75;100.00;98331.13;5092676;27;46289;-77
2023/01/17 06:02:45;;;;;;;;;23.75;21.00;;;;;7.83;100.00;98335.59;5090502;27;46194;-75
2023/01/17 06:05:14;;;;;;;;;23.50;20.75;;;;;7.78;100.00;98314.53;5102064;27;45289;-77
2023/01/17 06:07:43;;;;;;;;;31.75;29.00;;;;;7.83;100.00;98328.31;5091193;27;45487;-75
2023/01/17 06:10:09;;;;;;;;;24.75;21.50;;;;;7.74;100.00;98332.16;5099234;27;46272;-76
2023/01/17 06:12:35;;;;;;;;;20.50;18.00;;;;;7.77;100.00;98331.78;5089821;27;45389;-76
2023/01/17 06:15:01;;;;;;;;;23.50;22.25;;;;;7.74;100.00;98325.94;5098244;27;45406;-76
2023/01/17 06:17:26;;;;;;;;;25.00;19.00;;;;;7.86;100.00;98324.41;5093391;27;45348;-76
2023/01/17 06:19:51;;;;;;;;;26.25;21.75;;;;;7.86;100.00;98324.41;5082051;27;47037;-76
2023/01/17 06:22:17;;;;;;;;;25.50;21.00;;;;;7.78;100.00;98333.47;5097968;27;45357;-76
2023/01/17 06:24:42;;;;;;;;;19.50;14.75;;;;;7.77;100.00;98314.72;5092467;27;45856;-76
2023/01/17 06:27:09;;;;;;;;;20.25;20.25;;;;;7.92;100.00;98322.81;5093381;27;45170;-75
2023/01/17 06:29:34;;;;;;;;;20.75;16.50;;;;;7.83;100.00;98309.41;5081564;27;46767;-77
2023/01/17 06:32:00;;;;;;;;;21.50;19.50;;;;;7.68;100.00;98322.09;5075703;27;45717;-75
2023/01/17 06:34:25;;;;;;;;;27.50;24.00;;;;;7.59;100.00;98317.84;5094328;27;45527;-75
2023/01/17 06:36:51;;;;;;;;;31.25;26.50;;;;;7.64;100.00;98331.63;5094824;27;45400;-75
2023/01/17 06:39:16;;;;;;;;;26.50;21.50;;;;;7.75;100.00;98333.81;5101505;27;45459;-77
2023/01/17 06:41:42;;;;;;;;;24.25;22.50;;;;;7.81;100.00;98329.56;5091110;27;46134;-76
2023/01/17 06:44:08;;;;;;;;;22.00;19.25;;;;;7.90;100.00;98325.69;5097551;27;45521;-77
2023/01/17 06:46:33;;;;;;;;;26.00;21.00;;;;;7.97;100.00;98315.78;5090197;27;45489;-76
2023/01/17 06:48:59;;;;;;;;;33.75;32.75;;;;;7.75;100.00;98320.31;5099455;27;46586;-76
2023/01/17 06:51:24;;;;;;;;;31.25;29.00;;;;;7.72;100.00;98328.81;5096168;27;45359;-75
2023/01/17 06:53:49;;;;;;;;;31.25;25.75;;;;;7.74;100.00;98315.94;5097337;27;45347;-76
2023/01/17 06:56:15;;;;;;;;;28.25;25.25;;;;;7.85;100.00;98316.47;5089468;27;45480;-74
2023/01/17 06:58:40;;;;;;;;;26.00;23.00;;;;;7.93;100.00;98319.06;5088869;27;45481;-76
2023/01/17 07:01:08;;;;;;;;;27.50;26.00;;;;;8.05;100.00;98328.34;5079677;27;45310;-78
2023/01/17 07:03:33;;;;;;;;;27.50;21.25;;;;;8.12;100.00;98324.69;5077920;27;45450;-75
2023/01/17 07:06:03;;;;;;;;;33.25;25.75;;;;;8.17;100.00;98326.84;5094755;27;45503;-75
2023/01/17 07:08:29;;;;;;;;;24.75;22.00;;;;;8.09;100.00;98327.78;5074444;27;46624;-75
2023/01/17 07:11:00;;;;;;;;;30.50;22.75;;;;;8.05;100.00;98331.06;5088008;27;45437;-77
2023/01/17 07:13:26;;;;;;;;;29.25;24.25;;;;;7.90;100.00;98330.25;5092310;27;45317;-77
2023/01/17 07:15:52;;;;;;;;;36.50;30.00;;;;;7.78;100.00;98332.63;5093173;27;45431;-76
2023/01/17 07:18:22;;;;;;;;;29.75;29.75;;;;;7.71;100.00;98334.41;5091930;27;45372;-75
2023/01/17 07:20:48;;;;;;;;;31.75;26.25;;;;;7.81;100.00;98333.09;5091035;27;45286;-75
2023/01/17 07:23:16;;;;;;;;;37.00;28.25;;;;;7.81;100.00;98343.06;5092386;27;45495;-76
2023/01/17 07:25:42;;;;;;;;;30.75;30.00;;;;;7.85;100.00;98338.09;5090774;27;45562;-76
2023/01/17 07:28:07;;;;;;;;;33.25;30.00;;;;;7.85;100.00;98335.41;5075546;27;47044;-76
2023/01/17 07:30:34;;;;;;;;;38.00;28.75;;;;;7.88;100.00;98327.75;5093069;27;44931;-74
2023/01/17 07:33:00;;;;;;;;;33.00;29.00;;;;;7.89;100.00;98329.41;5071676;28;45425;-74
2023/01/17 07:35:26;;;;;;;;;26.50;25.25;;;;;7.97;100.00;98332.00;5084866;27;45567;-76
2023/01/17 07:37:52;;;;;;;;;38.50;28.25;;;;;7.97;100.00;98328.47;5091880;27;46396;-79
2023/01/17 07:40:19;;;;;;;;;34.75;29.25;;;;;7.89;100.00;98334.81;5087383;27;45354;-76
2023/01/17 07:42:45;;;;;;;;;22.50;22.50;;;;;7.80;100.00;98344.09;5091370;27;45545;-76
2023/01/17 07:45:12;;;;;;;;;31.25;27.25;;;;;7.76;100.00;98332.81;5090124;27;45436;-76
2023/01/17 07:47:38;;;;;;;;;29.00;25.75;;;;;7.80;100.00;98342.22;5089309;27;46290;-77
2023/01/17 07:50:05;;;;;;;;;31.50;26.25;;;;;7.78;100.00;98338.88;5081849;27;45371;-74
2023/01/17 07:52:30;;;;;;;;;34.75;26.50;;;;;7.88;100.00;98324.22;5096906;27;45512;-75
2023/01/17 07:54:55;;;;;;;;;27.00;24.75;;;;;7.89;100.00;98339.41;5097792;27;45338;-75
2023/01/17 07:57:21;;;;;;;;;24.00;21.75;;;;;7.94;100.00;98327.00;5087327;27;46553;-75
2023/01/17 07:59:49;;;;;;;;;34.25;24.00;;;;;7.90;100.00;98328.38;5091141;27;45346;-77
2023/01/17 08:02:17;;;;;;;;;23.75;20.75;;;;;7.93;100.00;98332.59;5085626;27;45158;-75
2023/01/17 08:04:43;;;;;;;;;31.00;24.50;;;;;7.88;100.00;98327.75;5084162;27;45460;-74
2023/01/17 08:07:08;;;;;;;;;27.25;21.25;;;;;7.79;100.00;98328.91;5092025;27;45481;-76
2023/01/17 08:09:33;;;;;;;;;27.00;20.00;;;;;7.78;100.00;98352.38;5080591;27;45427;-75
2023/01/17 08:12:00;;;;;;;;;33.75;27.00;;;;;7.68;100.00;98351.81;5098658;27;45832;-76
2023/01/17 08:14:25;;;;;;;;;27.00;21.25;;;;;7.69;100.00;98350.81;5081675;27;45662;-76
2023/01/17 08:16:50;;;;;;;;;32.50;19.50;;;;;7.69;100.00;98350.81;5089168;27;45483;-77
2023/01/17 08:19:16;;;;;;;;;26.75;25.00;;;;;7.61;100.00;98350.91;5095949;27;45469;-76
2023/01/17 08:21:41;;;;;;;;;29.00;24.25;;;;;7.50;100.00;98342.44;5066139;28;45533;-75
2023/01/17 08:24:12;;;;;;;;;34.50;26.50;;;;;7.45;100.00;98343.03;5076758;28;45441;-76
2023/01/17 08:26:38;;;;;;;;;26.25;22.00;;;;;7.61;100.00;98353.59;5066826;27;45719;-76
2023/01/17 08:29:03;;;;;;;;;25.75;21.50;;;;;7.68;100.00;98349.13;5073496;27;45518;-74
2023/01/17 08:31:31;;;;;;;;;32.75;27.75;;;;;7.65;100.00;98349.53;5073856;27;46684;-74
2023/01/17 08:33:56;;;;;;;;;29.75;27.50;;;;;7.68;100.00;98343.72;5073961;27;45360;-74
2023/01/17 08:36:24;;;;;;;;;33.75;26.50;;;;;7.75;100.00;98350.03;5071020;28;45437;-75
2023/01/17 08:38:51;;;;;;;;;29.00;24.25;;;;;7.79;100.00;98370.28;5077165;28;45310;-75
2023/01/17 08:41:20;;;;;;;;;35.75;29.00;;;;;7.89;100.00;98366.47;5070602;28;45495;-75
2023/01/17 08:43:50;;;;;;;;;33.25;25.75;;;;;7.95;100.00;98360.28;5079114;28;45412;-75
2023/01/17 08:46:17;;;;;;;;;39.00;30.25;;;;;7.92;100.00;98360.66;5072008;28;46417;-75
2023/01/17 08:48:43;;;;;;;;;29.00;28.00;;;;;7.69;100.00;98361.63;5074937;27;45493;-75
2023/01/17 08:51:08;;;;;;;;;30.00;27.75;;;;;7.68;100.00;98351.81;5079371;28;45376;-75
2023/01/17 08:53:33;;;;;;;;;30.50;24.25;;;;;7.55;100.00;98343.56;5075939;27;45393;-77
2023/01/17 08:56:01;;;;;;;;;25.00;21.50;;;;;7.40;100.00;98330.06;5073607;28;46051;-74
2023/01/17 08:58:27;;;;;;;;;33.50;30.25;;;;;7.47;100.00;98345.50;5078389;28;45500;-75
2023/01/17 09:00:53;;;;;;;;;25.75;24.50;;;;;7.48;100.00;98342.63;5077430;27;45287;-74
2023/01/17 09:03:18;;;;;;;;;32.25;25.50;;;;;7.55;100.00;98340.00;5078489;27;45495;-75
2023/01/17 09:05:44;;;;;;;;;36.00;27.25;;;;;7.70;100.00;98347.09;5077145;28;46698;-74
2023/01/17 09:08:09;;;;;;;;;37.25;33.50;;;;;7.76;100.00;98335.50;5076246;27;45394;-76
2023/01/17 09:10:34;;;;;;;;;37.75;27.25;;;;;7.95;100.00;98327.84;5075017;28;45262;-75
2023/01/17 09:13:00;;;;;;;;;40.50;31.25;;;;;8.05;100.00;98318.38;5078113;27;45456;-76
2023/01/17 09:15:25;;;;;;;;;45.75;34.25;;;;;8.15;100.00;98334.28;5073586;28;46323;-75
2023/01/17 09:17:54;;;;;;;;;39.25;31.25;;;;;8.19;100.00;98330.16;5075345;28;45296;-75
2023/01/17 09:20:20;;;;;;;;;32.00;26.25;;;;;8.15;100.00;98332.44;5076841;27;45427;-75
2023/01/17 09:22:45;;;;;;;;;37.25;30.75;;;;;7.97;100.00;98328.47;5086916;27;45476;-74
2023/01/17 09:25:11;;;;;;;;;31.00;29.25;;;;;8.04;100.00;98327.50;5092117;27;45330;-75
2023/01/17 09:27:36;;;;;;;;;22.00;22.00;;;;;8.12;100.00;98326.56;5094882;27;45372;-75
2023/01/17 09:30:02;;;;;;;;;25.00;19.75;;;;;8.19;100.00;98335.56;5092554;27;45623;-74
2023/01/17 09:32:29;;;;;;;;;22.50;19.75;;;;;8.17;100.00;98322.28;5073697;27;45386;-75
2023/01/17 09:34:59;;;;;;;;;26.25;21.25;;;;;8.48;100.00;98334.66;5073506;27;48064;-75
2023/01/17 09:37:24;;;;;;;;;31.00;22.75;;;;;8.65;100.00;98335.22;5092460;27;45321;-75
2023/01/17 09:39:50;;;;;;;;;30.75;23.25;;;;;8.74;100.00;98328.66;5077491;27;45551;-76
2023/01/17 09:42:34;;;;;;;;;23.00;21.25;;;;;8.87;100.00;98335.00;5072420;28;45667;-75
2023/01/17 09:45:01;;;;;;;;;22.50;18.50;;;;;8.91;100.00;98335.47;5094358;27;45401;-76
2023/01/17 09:47:42;;;;;;;;;17.00;13.00;;;;;8.85;100.00;98336.22;5089547;27;45333;-74
2023/01/17 09:50:32;;;;;;;;;26.50;23.25;;;;;8.98;100.00;98341.75;5094612;27;45340;-74
2023/01/17 09:53:11;;;;;;;;;35.75;23.50;;;;;9.09;100.00;98345.78;5074314;27;45691;-74
2023/01/17 09:55:47;;;;;;;;;36.00;24.00;;;;;9.05;100.00;98342.66;5080244;27;47323;-75
2023/01/17 09:58:38;;;;;;;;;35.50;28.50;;;;;9.19;100.00;98344.41;5080650;27;45491;-75
2023/01/17 10:01:15;;;;;;;;;27.25;23.00;;;;;9.40;100.00;98348.91;5097152;27;45252;-76
2023/01/17 10:03:55;;;;;;;;;27.75;27.25;;;;;9.40;100.00;98350.78;5102956;27;45397;-75
2023/01/17 10:06:25;;;;;;;;;32.75;25.25;;;;;9.55;100.00;98359.66;5091344;27;45479;-74
2023/01/17 10:09:06;;;;;;;;;28.50;24.00;;;;;9.58;100.00;98362.78;5099472;27;45322;-74
2023/01/17 10:11:52;;;;;;;;;23.75;19.50;;;;;9.70;100.00;98365.78;5093173;27;45526;-76
2023/01/17 10:14:29;;;;;;;;;25.75;24.00;;;;;9.62;100.00;98365.94;5096651;27;45625;-76
2023/01/17 10:17:23;;;;;;;;;19.50;15.25;;;;;9.62;100.00;98366.78;5096188;27;45862;-75
2023/01/17 10:20:24;;;;;;;;;17.33;14.00;;;;;9.64;100.00;98369.28;5083633;27;45440;-75
2023/01/17 10:23:41;;;;;;;;;16.00;14.00;;;;;9.60;100.00;98368.00;5089294;27;45414;-75
2023/01/17 10:26:15;;;;;;;;;13.33;13.33;;;;;9.61;100.00;98364.25;5061042;27;45400;-74
2023/01/17 10:28:50;;;;;;;;;14.67;14.33;;;;;9.62;100.00;98363.22;5095889;27;45590;-77
2023/01/17 10:31:27;;;;;;;;;14.67;11.67;;;;;9.70;100.00;98371.19;5078198;27;45392;-76
2023/01/17 10:33:54;;;;;;;;;12.33;9.00;;;;;9.73;100.00;98359.94;5097629;27;45246;-75
2023/01/17 10:36:25;;;;;;;;;13.33;13.33;;;;;9.90;100.00;98366.69;5095817;27;45386;-75
2023/01/17 10:38:56;;;;;;;;;21.33;18.67;;;;;9.69;100.00;98356.81;5095554;27;45496;-75
2023/01/17 10:41:29;;;;;;;;;23.00;22.50;;;;;9.56;100.00;98358.59;5095082;27;45278;-75
2023/01/17 10:44:21;;;;;;;;;20.33;17.33;;;;;9.67;100.00;98364.28;5099797;27;45318;-75
2023/01/17 10:47:02;;;;;;;;;20.00;16.33;;;;;9.73;100.00;98365.34;5091793;27;45436;-74
2023/01/17 10:49:28;;;;;;;;;20.67;20.00;;;;;9.77;100.00;98364.78;5097895;27;46497;-76
2023/01/17 10:52:17;;;;;;;;;24.33;19.67;;;;;9.60;100.00;98365.28;5080790;27;45476;-74
2023/01/17 10:55:17;;;;;;;;;15.67;14.67;;;;;9.56;100.00;98364.88;5086604;27;45325;-74
2023/01/17 10:57:44;;;;;;;;;31.00;24.00;;;;;9.25;100.00;98361.75;5072359;27;45786;-75
2023/01/17 11:00:33;;;;;;;;;19.25;17.00;;;;;9.22;100.00;98348.59;5086334;27;45701;-75
2023/01/17 11:02:59;;;;;;;;;27.25;24.75;;;;;9.43;100.00;98351.22;5091901;27;45243;-76
2023/01/17 11:05:28;;;;;;;;;27.75;22.00;;;;;9.54;100.00;98336.28;5099110;27;45320;-75
2023/01/17 11:07:57;;;;;;;;;23.50;18.00;;;;;9.58;100.00;98337.53;5100129;27;45401;-75
2023/01/17 11:10:40;;;;;;;;;26.00;21.00;;;;;9.63;100.00;98330.50;5080137;27;47174;-75
2023/01/17 11:13:33;;;;;;;;;24.33;18.33;;;;;9.55;100.00;98337.97;5079668;27;45400;-75
2023/01/17 11:16:15;;;;;;;;;29.33;25.33;;;;;9.55;100.00;98336.09;5085562;27;45350;-76
2023/01/17 11:18:41;;;;;;;;;12.33;11.00;;;;;9.65;100.00;98327.56;5098431;27;45364;-75
2023/01/17 11:21:22;;;;;;;;;26.25;24.25;;;;;9.78;100.00;98327.66;5099212;27;45934;-75
2023/01/17 11:23:55;;;;;;;;;24.25;22.25;;;;;9.31;100.00;98323.00;5094804;27;45363;-76
2023/01/17 11:26:33;;;;;;;;;19.67;15.33;;;;;9.62;100.00;98330.69;5077161;27;45377;-76
2023/01/17 11:29:29;;;;;;;;;23.00;17.00;;;;;9.74;100.00;98323.66;5079002;27;45283;-76
2023/01/17 11:31:55;;;;;;;;;16.33;16.33;;;;;9.85;100.00;98322.25;5098103;27;46190;-78
2023/01/17 11:34:28;;;;;;;;;19.33;15.67;;;;;9.89;100.00;98324.34;5093194;27;45325;-76
2023/01/17 11:37:19;;;;;;;;;18.33;16.00;;;;;9.58;100.00;98322.13;5095043;27;45389;-76
2023/01/17 11:39:48;;;;;;;;;17.33;14.67;;;;;9.85;100.00;98311.41;5087538;27;45576;-76
2023/01/17 11:42:32;;;;;;;;;17.00;16.67;;;;;10.13;100.00;98323.81;5093449;27;46548;-76
2023/01/17 11:45:28;;;;;;;;;30.33;24.33;;;;;9.92;100.00;98326.66;5074958;27;45401;-75
2023/01/17 11:48:06;;;;;;;;;14.00;14.00;;;;;9.83;100.00;98318.88;5076493;27;45350;-76
2023/01/17 11:50:32;;;;;;;;;22.00;16.67;;;;;9.77;100.00;98325.97;5083162;27;45262;-76
2023/01/17 11:53:15;;;;;;;;;16.00;14.00;;;;;9.99;100.00;98321.25;5097650;27;45814;-76
2023/01/17 11:55:52;;;;;;;;;18.67;14.67;;;;;10.10;100.00;98315.22;5079357;27;45518;-76
2023/01/17 11:58:19;;;;;;;;;17.00;15.67;;;;;10.21;100.00;98311.13;5079768;28;45451;-75
2023/01/17 12:00:53;;;;;;;;;12.00;10.33;;;;;10.11;100.00;98315.03;5097372;27;45540;-77
2023/01/17 12:03:28;;;;;;;;;18.00;15.33;;;;;9.90;100.00;98301.59;5078481;27;47408;-75
2023/01/17 12:06:10;;;;;;;;;19.00;16.33;;;;;9.76;100.00;98297.19;5095785;27;45489;-75
2023/01/17 12:09:01;;;;;;;;;22.67;19.00;;;;;9.88;100.00;98300.97;5099056;27;45450;-75
2023/01/17 12:14:58;;;;;;;;;20.67;17.33;;;;;9.85;100.00;98293.25;5093001;27;45386;-76
2023/01/17 12:17:56;;;;;;;;;16.33;15.00;;;;;9.73;100.00;98282.13;5081737;27;45402;-76
2023/01/17 12:20:57;;;;;;;;;15.67;15.67;;;;;9.73;100.00;98292.16;5098131;27;46534;-75
2023/01/17 12:23:40;;;;;;;;;9.67;9.33;;;;;9.76;100.00;98292.59;5072950;27;45768;-77
2023/01/17 12:26:19;;;;;;;;;21.33;14.67;;;;;9.81;100.00;98289.25;5091324;27;45470;-75
2023/01/17 12:29:22;;;;;;;;;16.33;14.33;;;;;9.80;100.00;98294.88;5095585;27;45547;-76
2023/01/17 12:32:02;;;;;;;;;14.33;14.33;;;;;9.89;100.00;98297.22;5095257;27;45508;-77
2023/01/17 12:34:28;;;;;;;;;21.67;18.33;;;;;9.54;100.00;98296.47;5074255;28;45600;-75
2023/01/17 12:37:19;;;;;;;;;17.67;16.33;;;;;9.46;100.00;98296.63;5080063;27;46482;-77
2023/01/17 12:39:56;;;;;;;;;18.33;15.00;;;;;9.48;100.00;98275.59;5074156;27;45392;-76
2023/01/17 12:42:29;;;;;;;;;14.67;14.00;;;;;9.60;100.00;98286.69;5091258;27;45325;-76
2023/01/17 12:45:16;;;;;;;;;20.67;16.33;;;;;9.56;100.00;98288.13;5076278;27;45629;-77
2023/01/17 12:47:47;;;;;;;;;25.75;22.25;;;;;9.10;100.00;98280.59;5095243;27;45500;-77
2023/01/17 12:50:57;;;;;;;;;16.33;13.00;;;;;9.16;100.00;98285.19;5098404;27;45508;-75
2023/01/17 12:53:34;;;;;;;;;26.00;14.33;;;;;8.95;100.00;98287.97;5082082;27;45397;-77
2023/01/17 12:56:17;;;;;;;;;14.00;9.00;;;;;9.15;100.00;98288.94;5079597;27;45353;-75
2023/01/17 12:58:51;;;;;;;;;22.33;16.67;;;;;9.21;100.00;98282.72;5098925;27;45587;-76
2023/01/17 13:01:30;;;;;;;;;11.67;10.00;;;;;8.92;100.00;98285.66;5079670;27;45340;-76